Time;durP1;ratioP1;P1;durP2;ratioP2;P2;SDS_P1;SDS_P2;PMS_P1;PMS_P2;Temp;Humidity;BMP_temperature;BMP_pressure;BME280_temperature;BME280_humidity;BME280_pressure;Samples;Min_cycle;Max_cycle;Signal;HPM_P1;HPM_P2
2022/09/16 04:01:09;;;;;;;13.13;7.93;;;14.60;99.90;;;;;;5675514;23;20935;-75
2022/09/16 04:03:36;;;;;;;11.00;8.13;;;14.60;99.90;;;;;;4986185;28;20467;-75
2022/09/16 04:06:03;;;;;;;14.33;9.70;;;14.50;99.90;;;;;;4985757;28;20865;-75
2022/09/16 04:08:30;;;;;;;13.97;10.30;;;14.50;99.90;;;;;;4987014;28;20467;-75
2022/09/16 04:10:58;;;;;;;14.53;9.40;;;14.50;99.90;;;;;;4986564;28;20486;-75
2022/09/16 04:13:26;;;;;;;17.60;10.80;;;14.40;99.90;;;;;;4986547;28;20971;-75
2022/09/16 04:15:52;;;;;;;17.33;11.77;;;14.40;99.90;;;;;;4986087;28;20557;-75
2022/09/16 04:18:20;;;;;;;20.23;11.53;;;14.40;99.90;;;;;;4985759;28;20471;-75
2022/09/16 04:20:47;;;;;;;14.83;11.30;;;14.40;99.90;;;;;;4974097;28;20483;-75
2022/09/16 04:23:14;;;;;;;14.47;10.43;;;14.40;99.90;;;;;;4986441;28;20460;-75
2022/09/16 04:25:41;;;;;;;15.00;11.17;;;14.40;99.90;;;;;;4985522;28;20456;-75
2022/09/16 04:28:08;;;;;;;14.10;10.80;;;14.50;99.90;;;;;;4986372;28;20498;-75
2022/09/16 04:30:36;;;;;;;16.30;10.90;;;14.50;99.90;;;;;;4986299;28;20490;-75
2022/09/16 04:33:02;;;;;;;15.23;11.00;;;14.50;99.90;;;;;;4976020;28;20475;-75
2022/09/16 04:35:31;;;;;;;14.00;9.90;;;14.50;99.90;;;;;;4966019;28;20467;-75
2022/09/16 04:37:57;;;;;;;13.50;10.10;;;14.50;99.90;;;;;;4966986;28;20452;-75
2022/09/16 04:40:24;;;;;;;11.47;10.27;;;14.50;99.90;;;;;;4966418;28;20468;-75
2022/09/16 04:42:51;;;;;;;13.43;9.57;;;14.50;99.90;;;;;;4967296;28;20465;-75
2022/09/16 04:45:18;;;;;;;12.90;9.83;;;14.60;99.90;;;;;;4966299;28;20465;-75
2022/09/16 04:47:45;;;;;;;13.93;9.23;;;14.60;99.90;;;;;;4966524;28;21497;-75
2022/09/16 04:50:12;;;;;;;11.67;8.20;;;14.60;99.90;;;;;;4971394;28;20457;-75
2022/09/16 04:52:40;;;;;;;12.87;9.30;;;14.60;99.90;;;;;;4966969;28;20552;-77
2022/09/16 04:55:08;;;;;;;14.63;10.03;;;14.60;99.90;;;;;;4974724;28;20464;-79
2022/09/16 04:57:34;;;;;;;11.13;9.50;;;14.60;99.90;;;;;;4974383;28;20452;-77
2022/09/16 05:00:02;;;;;;;10.20;9.10;;;14.60;99.90;;;;;;4974392;28;20464;-80
2022/09/16 05:02:29;;;;;;;14.07;9.83;;;14.60;99.90;;;;;;4966620;28;20499;-69
2022/09/16 05:04:55;;;;;;;13.83;9.97;;;14.60;99.90;;;;;;4976141;28;20470;-69
2022/09/16 05:07:22;;;;;;;11.37;10.17;;;14.60;99.90;;;;;;4985234;28;20704;-67
2022/09/16 05:09:50;;;;;;;13.50;9.50;;;14.60;99.90;;;;;;4985501;28;20464;-69
2022/09/16 05:12:17;;;;;;;14.90;9.73;;;14.60;99.90;;;;;;4986132;28;20502;-69
2022/09/16 05:14:44;;;;;;;12.27;9.10;;;14.70;99.90;;;;;;4985107;28;21387;-70
2022/09/16 05:17:11;;;;;;;11.07;9.13;;;14.60;99.90;;;;;;4988505;28;20550;-69
2022/09/16 05:19:37;;;;;;;13.80;8.30;;;14.70;99.90;;;;;;4989657;28;20506;-69
2022/09/16 05:22:06;;;;;;;14.20;9.17;;;14.70;99.90;;;;;;4987300;28;20491;-69
2022/09/16 05:24:35;;;;;;;17.53;9.50;;;14.70;99.90;;;;;;4988642;28;20498;-69
2022/09/16 05:27:03;;;;;;;14.50;9.40;;;14.70;99.90;;;;;;4989262;28;20491;-67
2022/09/16 05:29:30;;;;;;;13.20;9.93;;;14.70;99.90;;;;;;4995765;28;20469;-78
2022/09/16 05:31:57;;;;;;;12.77;8.80;;;14.70;99.90;;;;;;4995449;28;20479;-80
2022/09/16 05:34:27;;;;;;;12.17;9.60;;;14.70;99.90;;;;;;4994664;28;20510;-80
2022/09/16 05:36:55;;;;;;;14.63;9.37;;;14.70;99.90;;;;;;4993844;28;20466;-80
2022/09/16 05:39:23;;;;;;;16.33;10.10;;;14.70;99.90;;;;;;4994336;28;20455;-80
2022/09/16 05:41:53;;;;;;;12.20;10.70;;;14.70;99.90;;;;;;4994438;28;20494;-77
2022/09/16 05:44:21;;;;;;;11.30;9.67;;;14.70;99.90;;;;;;4993342;28;21043;-77
2022/09/16 05:46:48;;;;;;;15.23;9.77;;;14.70;99.90;;;;;;4993808;28;21011;-78
2022/09/16 05:49:19;;;;;;;12.00;9.60;;;14.70;99.90;;;;;;4993504;28;20470;-80
2022/09/16 05:51:46;;;;;;;13.20;10.70;;;14.70;99.90;;;;;;4994133;28;20475;-80
2022/09/16 05:54:13;;;;;;;14.20;9.90;;;14.70;99.90;;;;;;4991953;28;20470;-81
2022/09/16 05:56:41;;;;;;;15.30;11.10;;;14.80;99.90;;;;;;4993819;28;20451;-78
2022/09/16 05:59:10;;;;;;;13.07;10.10;;;14.80;99.90;;;;;;4994470;28;20451;-79
2022/09/16 06:01:39;;;;;;;13.63;10.10;;;14.70;99.90;;;;;;4995893;28;20483;-78
2022/09/16 06:04:07;;;;;;;14.13;10.00;;;14.70;99.90;;;;;;4992829;28;20474;-79
2022/09/16 06:06:36;;;;;;;14.00;9.30;;;14.70;99.90;;;;;;4994282;28;20460;-77
2022/09/16 06:09:06;;;;;;;13.00;10.83;;;14.70;99.90;;;;;;4994139;28;20470;-78
2022/09/16 06:11:37;;;;;;;14.37;10.30;;;14.70;99.90;;;;;;4992829;28;20483;-76
2022/09/16 06:14:04;;;;;;;12.00;9.43;;;14.70;99.90;;;;;;4991141;28;20947;-76
2022/09/16 06:16:32;;;;;;;14.20;9.73;;;14.70;99.90;;;;;;4990335;28;20833;-77
2022/09/16 06:19:01;;;;;;;13.83;9.97;;;14.80;99.90;;;;;;4990597;28;21227;-78
2022/09/16 06:21:28;;;;;;;12.40;9.30;;;14.70;99.90;;;;;;4990369;28;20479;-77
2022/09/16 06:23:56;;;;;;;12.00;10.57;;;14.70;99.90;;;;;;4989496;28;20452;-78
2022/09/16 06:26:25;;;;;;;13.20;10.50;;;14.70;99.90;;;;;;4977318;28;20453;-76
2022/09/16 06:28:53;;;;;;;14.77;9.10;;;14.70;99.90;;;;;;4972985;28;20500;-77
2022/09/16 06:31:22;;;;;;;10.40;8.10;;;14.60;99.90;;;;;;4969518;28;21013;-77
2022/09/16 06:33:50;;;;;;;11.83;7.77;;;14.60;99.90;;;;;;4968775;28;21128;-76
2022/09/16 06:36:19;;;;;;;11.90;7.93;;;14.50;99.90;;;;;;4969010;28;20546;-77
2022/09/16 06:38:47;;;;;;;10.20;7.80;;;14.60;99.90;;;;;;4988637;28;20542;-77
2022/09/16 06:41:15;;;;;;;12.60;7.37;;;14.60;99.90;;;;;;4988837;28;20483;-77
2022/09/16 06:43:43;;;;;;;13.23;7.90;;;14.70;99.90;;;;;;4989444;28;21119;-77
2022/09/16 06:46:14;;;;;;;10.80;8.27;;;14.70;99.90;;;;;;4988871;28;20552;-76
2022/09/16 06:48:42;;;;;;;10.40;7.07;;;14.70;99.90;;;;;;4988806;28;20495;-77
2022/09/16 06:51:11;;;;;;;10.20;7.17;;;14.70;99.90;;;;;;4989335;28;20488;-77
2022/09/16 06:53:39;;;;;;;9.80;7.70;;;14.70;99.90;;;;;;4975765;28;20584;-76
2022/09/16 06:56:09;;;;;;;9.00;6.03;;;14.60;99.90;;;;;;4969234;28;20468;-75
2022/09/16 06:58:38;;;;;;;5.70;5.10;;;14.70;99.90;;;;;;4970050;28;20545;-76
2022/09/16 07:01:05;;;;;;;8.50;4.83;;;14.60;99.90;;;;;;4969366;28;20522;-71
2022/09/16 07:03:32;;;;;;;6.53;4.80;;;14.60;99.90;;;;;;4968400;28;20823;-70
2022/09/16 07:06:00;;;;;;;6.43;4.10;;;14.50;99.90;;;;;;4967358;28;20458;-70
2022/09/16 07:08:28;;;;;;;7.03;3.30;;;14.40;99.90;;;;;;4970307;28;20484;-68
2022/09/16 07:10:58;;;;;;;6.40;3.37;;;14.30;99.90;;;;;;4981798;28;20485;-70
2022/09/16 07:13:25;;;;;;;4.40;3.70;;;14.30;99.90;;;;;;4968376;28;20471;-71
2022/09/16 07:15:52;;;;;;;7.90;3.57;;;14.30;99.90;;;;;;4967193;28;20492;-70
2022/09/16 07:18:19;;;;;;;4.53;3.07;;;14.20;99.90;;;;;;4968166;28;20453;-68
2022/09/16 07:20:46;;;;;;;6.00;2.90;;;14.20;99.90;;;;;;4967562;28;20485;-70
2022/09/16 07:23:13;;;;;;;7.90;3.27;;;14.20;99.90;;;;;;4967799;28;20498;-69
2022/09/16 07:25:39;;;;;;;5.07;3.50;;;14.10;99.90;;;;;;4979877;28;20915;-69
2022/09/16 07:28:07;;;;;;;3.63;3.33;;;14.00;99.90;;;;;;4986802;28;21048;-70
2022/09/16 07:30:34;;;;;;;7.20;3.43;;;14.10;99.90;;;;;;4986852;28;21183;-70
2022/09/16 07:33:01;;;;;;;9.97;3.90;;;14.00;99.90;;;;;;4987396;28;20491;-69
2022/09/16 07:35:28;;;;;;;11.60;3.27;;;13.90;99.90;;;;;;4985969;28;20455;-70
2022/09/16 07:37:54;;;;;;;7.00;3.20;;;13.90;99.90;;;;;;4986932;28;20478;-70
2022/09/16 07:40:21;;;;;;;7.70;3.20;;;13.90;99.90;;;;;;4984477;28;20466;-70
2022/09/16 07:42:48;;;;;;;6.30;3.67;;;13.90;99.90;;;;;;4967095;28;20468;-70
2022/09/16 07:45:16;;;;;;;8.13;2.77;;;13.80;99.90;;;;;;4966647;28;20472;-71
2022/09/16 07:47:43;;;;;;;3.53;2.90;;;13.80;99.90;;;;;;4983220;28;21040;-70
2022/09/16 07:50:10;;;;;;;4.30;2.60;;;13.80;99.90;;;;;;4986574;28;20978;-69
2022/09/16 07:52:37;;;;;;;4.87;2.93;;;13.80;99.90;;;;;;4986271;28;20448;-68
2022/09/16 07:55:04;;;;;;;5.20;3.30;;;13.90;99.90;;;;;;4986197;28;20838;-77
2022/09/16 07:57:31;;;;;;;4.63;3.50;;;13.90;99.90;;;;;;4986154;28;20460;-77
2022/09/16 07:59:58;;;;;;;6.03;3.90;;;14.00;99.90;;;;;;4987141;28;20464;-77
2022/09/16 08:02:26;;;;;;;13.03;4.20;;;14.10;99.90;;;;;;4987136;28;20491;-76
2022/09/16 08:04:53;;;;;;;5.30;3.80;;;14.10;99.90;;;;;;4985535;28;20459;-77
2022/09/16 08:07:20;;;;;;;8.07;3.30;;;14.10;99.90;;;;;;4987129;28;20977;-77
2022/09/16 08:09:46;;;;;;;6.80;3.67;;;14.10;99.90;;;;;;4988314;28;20460;-77
2022/09/16 08:12:13;;;;;;;6.97;4.57;;;14.10;99.90;;;;;;4985532;28;20483;-77
2022/09/16 08:14:40;;;;;;;10.23;5.40;;;14.10;99.90;;;;;;4968835;28;20467;-77
2022/09/16 08:17:07;;;;;;;8.97;5.83;;;14.20;99.90;;;;;;4969560;28;20464;-77
2022/09/16 08:19:37;;;;;;;8.33;4.60;;;14.20;99.90;;;;;;4969028;28;20842;-77
2022/09/16 08:22:04;;;;;;;6.93;4.10;;;14.30;99.90;;;;;;4968995;28;20485;-77
2022/09/16 08:24:31;;;;;;;6.20;4.10;;;14.20;99.90;;;;;;4968524;28;20472;-76
2022/09/16 08:26:58;;;;;;;5.90;3.40;;;14.30;99.90;;;;;;4968407;28;20830;-77
2022/09/16 08:29:24;;;;;;;5.67;4.00;;;14.30;99.90;;;;;;4982745;28;20487;-77
2022/09/16 08:31:51;;;;;;;6.43;4.17;;;14.20;99.90;;;;;;4988480;28;21035;-77
2022/09/16 08:34:18;;;;;;;7.57;4.10;;;14.10;99.90;;;;;;4988800;28;20462;-78
2022/09/16 08:36:46;;;;;;;8.10;4.70;;;14.00;99.90;;;;;;4988627;28;20735;-77
2022/09/16 08:39:13;;;;;;;7.37;4.40;;;14.00;99.90;;;;;;4987578;28;21192;-77
2022/09/16 08:42:00;;;;;;;11.60;4.93;;;14.00;99.90;;;;;;4988765;28;20476;-77
2022/09/16 08:44:37;;;;;;;5.47;4.10;;;13.90;99.90;;;;;;4983902;28;20452;-77
2022/09/16 08:47:10;;;;;;;11.80;4.67;;;13.90;99.90;;;;;;4968924;28;20468;-76
2022/09/16 08:49:40;;;;;;;8.97;4.93;;;13.90;99.90;;;;;;4968599;28;20487;-78
2022/09/16 08:52:14;;;;;;;7.50;5.27;;;13.90;99.90;;;;;;4971361;28;20487;-76
2022/09/16 08:54:45;;;;;;;10.30;4.50;;;14.00;99.90;;;;;;4972507;28;20444;-74
2022/09/16 08:57:15;;;;;;;9.60;4.40;;;14.10;99.90;;;;;;4976210;28;20482;-76
2022/09/16 08:59:48;;;;;;;8.70;4.20;;;14.10;99.90;;;;;;4990702;28;20456;-76
2022/09/16 09:02:35;;;;;;;7.53;4.70;;;14.20;99.90;;;;;;4988919;28;20867;-77
2022/09/16 09:05:03;;;;;;;8.20;4.60;;;14.10;99.90;;;;;;4989508;28;20463;-77
2022/09/16 09:07:48;;;;;;;8.87;5.40;;;14.00;99.90;;;;;;4991486;28;20936;-76
2022/09/16 09:10:24;;;;;;;6.73;5.47;;;14.00;99.90;;;;;;4988219;28;20450;-76
2022/09/16 09:12:58;;;;;;;7.20;5.63;;;14.00;99.90;;;;;;4990162;28;20451;-76
2022/09/16 09:15:36;;;;;;;11.30;6.10;;;14.00;99.90;;;;;;4988970;28;20451;-76
2022/09/16 09:18:19;;;;;;;7.90;5.50;;;13.90;99.90;;;;;;4988732;28;20452;-76
2022/09/16 09:20:53;;;;;;;8.30;6.43;;;13.90;99.90;;;;;;4977268;28;20984;-77
2022/09/16 09:23:34;;;;;;;13.00;5.20;;;13.80;99.90;;;;;;4989492;28;20459;-77
2022/09/16 09:26:08;;;;;;;7.83;5.60;;;13.80;99.90;;;;;;4988815;28;20466;-76
2022/09/16 09:28:59;;;;;;;8.30;6.43;;;13.80;99.90;;;;;;4988950;28;20546;-75
2022/09/16 09:31:38;;;;;;;9.60;6.40;;;13.80;99.90;;;;;;4991745;28;20479;-77
2022/09/16 09:34:16;;;;;;;13.23;6.77;;;13.80;99.90;;;;;;4989852;28;20465;-77
2022/09/16 09:36:54;;;;;;;13.40;6.80;;;13.80;99.90;;;;;;4991513;28;21108;-76
2022/09/16 09:39:36;;;;;;;10.37;7.40;;;13.80;99.90;;;;;;4990127;28;20452;-75
2022/09/16 09:42:11;;;;;;;10.70;7.00;;;13.80;99.90;;;;;;4990662;28;20517;-77
2022/09/16 09:44:47;;;;;;;13.53;7.43;;;13.80;99.90;;;;;;4989859;28;21311;-76
2022/09/16 09:47:20;;;;;;;12.93;6.67;;;13.80;99.90;;;;;;4989073;28;21301;-76
2022/09/16 09:49:50;;;;;;;11.80;7.83;;;13.80;99.90;;;;;;4988293;28;20479;-76
2022/09/16 09:52:21;;;;;;;15.00;8.80;;;13.80;99.90;;;;;;4988311;28;20987;-76
2022/09/16 09:54:50;;;;;;;14.90;9.40;;;13.90;99.90;;;;;;4987673;28;21343;-76
2022/09/16 09:57:26;;;;;;;12.63;8.23;;;13.90;99.90;;;;;;4988874;28;20509;-76
2022/09/16 10:00:02;;;;;;;11.23;8.07;;;13.90;99.90;;;;;;4990150;28;20459;-74
2022/09/16 10:02:29;;;;;;;13.33;8.37;;;14.00;99.90;;;;;;4988429;28;20562;-76
2022/09/16 10:04:56;;;;;;;10.23;8.83;;;14.10;99.90;;;;;;4987246;28;20468;-76
2022/09/16 10:07:26;;;;;;;11.80;7.50;;;14.10;99.90;;;;;;4990571;28;20463;-76
2022/09/16 10:09:58;;;;;;;14.63;7.67;;;14.10;99.90;;;;;;4990443;28;20996;-75
2022/09/16 10:12:31;;;;;;;11.37;7.83;;;14.00;99.90;;;;;;4989438;28;20488;-77
2022/09/16 10:14:59;;;;;;;15.40;8.70;;;14.00;99.90;;;;;;4990013;28;20448;-77
2022/09/16 10:17:27;;;;;;;12.30;8.20;;;14.00;99.90;;;;;;4991123;28;20459;-77
2022/09/16 10:19:57;;;;;;;13.57;8.97;;;14.00;99.90;;;;;;4988683;28;20460;-77
2022/09/16 10:22:26;;;;;;;17.07;10.20;;;14.00;99.90;;;;;;4982335;28;20486;-77
2022/09/16 10:24:57;;;;;;;15.33;9.97;;;14.10;99.90;;;;;;4989140;28;20463;-77
2022/09/16 10:27:27;;;;;;;12.83;8.90;;;14.20;99.90;;;;;;4990433;28;20475;-77
2022/09/16 10:30:13;;;;;;;12.17;9.60;;;14.20;99.90;;;;;;4989147;28;20862;-76
2022/09/16 10:32:48;;;;;;;15.43;9.10;;;14.10;99.90;;;;;;4988426;28;20546;-77
2022/09/16 10:35:20;;;;;;;14.50;8.83;;;14.10;99.90;;;;;;4989359;28;20451;-76
2022/09/16 10:37:51;;;;;;;16.47;10.13;;;14.10;99.90;;;;;;4981608;28;20967;-78
2022/09/16 10:40:22;;;;;;;12.87;9.30;;;14.10;99.90;;;;;;4988706;28;20456;-76
2022/09/16 10:42:50;;;;;;;10.87;8.40;;;14.10;99.90;;;;;;4988086;28;20575;-76
2022/09/16 10:45:26;;;;;;;13.83;9.77;;;14.10;99.90;;;;;;4987458;28;20452;-75
2022/09/16 10:47:56;;;;;;;15.30;8.57;;;14.00;99.90;;;;;;4988388;28;20514;-76
2022/09/16 10:50:24;;;;;;;12.13;8.77;;;14.00;99.90;;;;;;4988682;28;20451;-76
2022/09/16 10:52:51;;;;;;;12.63;9.67;;;14.00;99.90;;;;;;4980950;28;20455;-77
2022/09/16 10:55:27;;;;;;;12.73;8.70;;;14.00;99.90;;;;;;4970229;28;20824;-76
2022/09/16 10:57:54;;;;;;;11.73;8.67;;;14.00;99.90;;;;;;4970325;28;20452;-77
2022/09/16 11:00:23;;;;;;;15.00;8.77;;;14.10;99.90;;;;;;4969598;28;20455;-77
2022/09/16 11:03:24;;;;;;;11.60;9.30;;;14.10;99.90;;;;;;4970188;28;20467;-77
2022/09/16 11:06:02;;;;;;;12.43;8.90;;;14.20;99.90;;;;;;4968674;28;20943;-75
2022/09/16 11:08:42;;;;;;;13.13;8.70;;;14.20;99.90;;;;;;4969783;28;21027;-80
2022/09/16 11:11:37;;;;;;;12.03;8.80;;;14.10;99.90;;;;;;4973976;28;20480;-77
2022/09/16 11:14:11;;;;;;;11.87;8.10;;;14.10;99.90;;;;;;4971538;28;20515;-77
2022/09/16 11:16:53;;;;;;;11.60;9.00;;;14.20;99.90;;;;;;4973107;28;20447;-80
2022/09/16 11:19:28;;;;;;;10.60;6.90;;;14.20;99.90;;;;;;4973304;28;20441;-80
2022/09/16 11:22:04;;;;;;;8.50;7.03;;;14.10;99.90;;;;;;4972113;28;20796;-79
2022/09/16 11:24:52;;;;;;;15.37;7.87;;;14.10;99.90;;;;;;4977961;28;20452;-79
2022/09/16 11:27:32;;;;;;;11.90;7.80;;;14.10;99.90;;;;;;4972793;28;20864;-78
2022/09/16 11:30:08;;;;;;;9.50;7.07;;;14.00;99.90;;;;;;4973434;28;20562;-78
2022/09/16 11:33:14;;;;;;;13.07;7.73;;;14.00;99.90;;;;;;4972132;28;20612;-79
2022/09/16 11:36:06;;;;;;;10.43;7.10;;;14.00;99.90;;;;;;4962822;28;21003;-79
2022/09/16 11:38:40;;;;;;;10.87;7.90;;;14.00;99.90;;;;;;4972675;28;20460;-78
2022/09/16 11:41:15;;;;;;;9.07;7.10;;;14.00;99.90;;;;;;4972597;28;20480;-77
2022/09/16 11:44:07;;;;;;;8.57;7.00;;;14.00;99.90;;;;;;4973176;28;20829;-79
2022/09/16 11:46:43;;;;;;;18.53;7.60;;;14.00;99.90;;;;;;4973243;28;20441;-79
2022/09/16 11:49:25;;;;;;;11.80;7.43;;;13.90;99.90;;;;;;4971574;28;21038;-79
2022/09/16 11:52:05;;;;;;;16.53;6.93;;;14.00;99.90;;;;;;4971282;28;20484;-77
2022/09/16 11:54:56;;;;;;;7.80;6.27;;;14.00;99.90;;;;;;4970984;28;20451;-77
2022/09/16 11:57:27;;;;;;;8.37;6.30;;;14.00;99.90;;;;;;4970365;28;20476;-79
2022/09/16 12:00:00;;;;;;;7.37;5.53;;;14.00;99.90;;;;;;4971844;28;20460;-79
2022/09/16 12:02:34;;;;;;;12.27;6.87;;;14.00;99.90;;;;;;4971641;28;20695;-78
2022/09/16 12:05:07;;;;;;;7.07;5.33;;;14.10;99.90;;;;;;4970848;28;20445;-78
2022/09/16 12:07:38;;;;;;;6.63;5.47;;;14.10;99.90;;;;;;4972018;28;20456;-79
2022/09/16 12:10:12;;;;;;;10.17;5.37;;;14.20;99.90;;;;;;4972436;28;20849;-78
2022/09/16 12:12:49;;;;;;;5.77;4.80;;;14.30;99.90;;;;;;4972503;28;20465;-79
2022/09/16 12:15:21;;;;;;;5.90;4.13;;;14.30;99.90;;;;;;4971577;28;20456;-78
2022/09/16 12:17:53;;;;;;;9.30;5.07;;;14.30;99.90;;;;;;4972353;28;20476;-79
2022/09/16 12:20:25;;;;;;;5.97;4.17;;;14.40;99.90;;;;;;4971169;28;21390;-78
2022/09/16 12:23:09;;;;;;;6.67;3.80;;;14.50;99.90;;;;;;4971459;28;20456;-78
2022/09/16 12:25:43;;;;;;;6.07;3.53;;;14.60;99.90;;;;;;4971094;28;20457;-79
2022/09/16 12:28:16;;;;;;;6.10;3.07;;;14.70;99.90;;;;;;4971716;28;20466;-80
2022/09/16 12:30:48;;;;;;;7.33;3.60;;;14.70;99.90;;;;;;4971463;28;20496;-80
2022/09/16 12:33:19;;;;;;;5.97;3.30;;;14.70;99.90;;;;;;4971580;28;20503;-79
2022/09/16 12:35:52;;;;;;;9.23;3.43;;;14.80;99.90;;;;;;4971835;28;20469;-79
2022/09/16 12:38:21;;;;;;;3.50;3.03;;;14.90;99.90;;;;;;4971409;28;20471;-81
2022/09/16 12:41:06;;;;;;;7.30;3.03;;;15.00;99.90;;;;;;4971209;28;21071;-80
2022/09/16 12:43:54;;;;;;;3.80;2.70;;;15.10;99.90;;;;;;4972319;28;20475;-80
2022/09/16 12:46:54;;;;;;;5.63;2.50;;;15.10;99.90;;;;;;4971257;28;20448;-77
2022/09/16 12:49:57;;;;;;;3.87;2.60;;;15.20;99.90;;;;;;4974063;28;20476;-77
2022/09/16 12:52:51;;;;;;;4.13;2.50;;;15.20;99.90;;;;;;4968277;28;20488;-78
2022/09/16 12:55:53;;;;;;;6.80;2.47;;;15.30;99.90;;;;;;4971894;28;20461;-77
2022/09/16 12:58:36;;;;;;;4.70;2.43;;;15.30;99.90;;;;;;4968334;28;20979;-78
2022/09/16 13:01:16;;;;;;;6.50;2.30;;;15.40;99.90;;;;;;4989029;28;20480;-78
2022/09/16 13:03:47;;;;;;;5.53;2.23;;;15.40;99.90;;;;;;4993383;28;20444;-80
2022/09/16 13:06:21;;;;;;;3.33;2.20;;;15.50;99.90;;;;;;4991930;28;20444;-81
2022/09/16 13:08:49;;;;;;;3.53;2.50;;;15.50;99.90;;;;;;4991676;28;20455;-80
2022/09/16 13:11:21;;;;;;;4.07;2.43;;;15.60;99.90;;;;;;4993044;28;20579;-80
2022/09/16 13:13:50;;;;;;;4.87;2.50;;;15.60;99.90;;;;;;4991897;28;21262;-81
2022/09/16 13:16:29;;;;;;;3.37;2.53;;;15.70;99.90;;;;;;4979722;28;20465;-78
2022/09/16 13:19:30;;;;;;;4.70;2.70;;;15.80;99.90;;;;;;4970904;28;20464;-79
2022/09/16 13:22:01;;;;;;;15.57;3.80;;;15.80;99.90;;;;;;4970442;28;20467;-80
2022/09/16 13:24:34;;;;;;;7.33;2.80;;;16.00;99.90;;;;;;4969585;28;20464;-79
2022/09/16 13:27:01;;;;;;;2.73;1.87;;;16.10;99.90;;;;;;4969790;28;20981;-78
2022/09/16 13:29:42;;;;;;;3.27;2.33;;;16.30;99.90;;;;;;4970321;28;20503;-80
2022/09/16 13:32:28;;;;;;;3.90;2.33;;;16.60;99.90;;;;;;4980121;28;20490;-79
2022/09/16 13:35:05;;;;;;;5.83;2.40;;;16.80;99.90;;;;;;4990709;28;20494;-80
2022/09/16 13:37:34;;;;;;;8.80;2.23;;;16.90;99.90;;;;;;4990488;28;20447;-80
2022/09/16 13:40:18;;;;;;;2.30;1.93;;;17.00;99.90;;;;;;4992693;28;20459;-80
2022/09/16 13:42:45;;;;;;;5.30;2.83;;;17.20;99.90;;;;;;4992231;28;20550;-80
2022/09/16 13:45:32;;;;;;;5.77;2.40;;;17.10;99.90;;;;;;4991417;28;20493;-79
2022/09/16 13:48:05;;;;;;;4.57;2.10;;;17.10;99.90;;;;;;4982417;28;20472;-79
2022/09/16 13:50:35;;;;;;;4.17;2.50;;;17.00;99.90;;;;;;4973385;28;20484;-73
2022/09/16 13:53:10;;;;;;;5.23;3.03;;;16.90;99.90;;;;;;4973529;28;20471;-79
2022/09/16 13:55:40;;;;;;;6.00;2.30;;;16.90;99.90;;;;;;4972511;28;20460;-78
2022/09/16 13:58:14;;;;;;;3.60;2.70;;;17.00;99.90;;;;;;4973169;28;20456;-73
2022/09/16 14:00:52;;;;;;;3.47;2.20;;;17.10;99.90;;;;;;4972877;28;20494;-72
2022/09/16 14:03:42;;;;;;;4.63;2.23;;;17.20;99.90;;;;;;4987473;28;20482;-73
2022/09/16 14:06:45;;;;;;;3.00;1.93;;;17.40;99.90;;;;;;4985217;28;20462;-73
2022/09/16 14:09:31;;;;;;;6.43;2.17;;;17.70;99.90;;;;;;4987017;28;20970;-73
2022/09/16 14:12:07;;;;;;;3.73;2.23;;;17.90;99.90;;;;;;4987509;28;20471;-73
2022/09/16 14:14:36;;;;;;;4.33;2.23;;;17.90;99.90;;;;;;4987808;28;20816;-74
2022/09/16 14:17:05;;;;;;;5.37;2.30;;;18.00;99.90;;;;;;4986207;28;20496;-71
2022/09/16 14:19:36;;;;;;;3.13;1.83;;;18.00;99.90;;;;;;4988104;28;20455;-71
2022/09/16 14:22:13;;;;;;;2.77;1.80;;;18.10;99.90;;;;;;4988568;28;20471;-72
2022/09/16 14:24:41;;;;;;;4.90;2.00;;;18.20;99.90;;;;;;4988062;28;20455;-72
2022/09/16 14:27:19;;;;;;;2.70;2.00;;;18.30;99.90;;;;;;4988828;28;20456;-71
2022/09/16 14:29:55;;;;;;;5.53;1.80;;;18.30;99.90;;;;;;4988496;28;20499;-72
2022/09/16 14:32:24;;;;;;;3.60;1.77;;;18.40;99.90;;;;;;4988208;28;21097;-73
2022/09/16 14:34:52;;;;;;;4.03;2.50;;;18.50;99.90;;;;;;4985613;28;20979;-72
2022/09/16 14:37:21;;;;;;;4.87;2.50;;;18.50;99.90;;;;;;4987882;28;20472;-71
2022/09/16 14:39:49;;;;;;;2.57;1.80;;;18.60;99.90;;;;;;4988514;28;20455;-74
2022/09/16 14:42:20;;;;;;;5.17;1.93;;;18.60;99.90;;;;;;4988236;28;20980;-72
2022/09/16 14:44:49;;;;;;;7.13;2.13;;;18.60;99.90;;;;;;4988916;28;20460;-77
2022/09/16 14:47:22;;;;;;;5.73;2.20;;;18.40;99.90;;;;;;4989947;28;21177;-76
2022/09/16 14:49:52;;;;;;;3.87;2.20;;;18.30;99.90;;;;;;4991184;28;20496;-77
2022/09/16 14:52:22;;;;;;;3.57;1.87;;;18.30;99.90;;;;;;4989468;28;20474;-76
2022/09/16 14:54:50;;;;;;;3.67;2.10;;;18.30;99.90;;;;;;4989627;28;20466;-78
2022/09/16 14:57:21;;;;;;;5.17;1.93;;;18.40;99.90;;;;;;4989645;28;20464;-77
2022/09/16 14:59:49;;;;;;;5.13;1.80;;;18.60;99.90;;;;;;4988978;28;20460;-75
2022/09/16 15:02:20;;;;;;;4.13;1.93;;;18.70;99.90;;;;;;4988595;28;20495;-78
2022/09/16 15:04:52;;;;;;;5.93;2.10;;;18.80;99.90;;;;;;4989107;28;20889;-78
2022/09/16 15:07:23;;;;;;;2.47;1.63;;;18.80;99.90;;;;;;4989900;28;20447;-71
2022/09/16 15:09:55;;;;;;;2.70;1.47;;;18.70;99.90;;;;;;4988203;28;20476;-72
2022/09/16 15:12:27;;;;;;;3.73;1.50;;;18.80;99.90;;;;;;4987697;28;20494;-72
2022/09/16 15:14:54;;;;;;;3.30;1.57;;;18.80;99.90;;;;;;4987115;28;20444;-71
2022/09/16 15:17:25;;;;;;;2.73;1.43;;;18.90;99.90;;;;;;4987703;28;20468;-72
2022/09/16 15:19:56;;;;;;;4.43;1.93;;;18.80;99.90;;;;;;4986963;28;20451;-69
2022/09/16 15:22:25;;;;;;;4.10;1.87;;;18.70;99.90;;;;;;4983652;28;20598;-69
2022/09/16 15:24:54;;;;;;;3.83;1.80;;;18.80;99.90;;;;;;4984004;28;20447;-69
2022/09/16 15:27:23;;;;;;;4.10;1.73;;;18.90;99.90;;;;;;4983842;28;20459;-69
2022/09/16 15:29:56;;;;;;;2.70;1.50;;;19.00;99.90;;;;;;4986647;28;20502;-68
2022/09/16 15:32:26;;;;;;;4.50;1.40;;;19.10;99.90;;;;;;4983747;28;20534;-69
2022/09/16 15:35:27;;;;;;;4.33;1.40;;;18.90;99.90;;;;;;4986878;28;20460;-72
2022/09/16 15:37:55;;;;;;;3.80;1.40;;;18.60;99.90;;;;;;4969750;28;20475;-72
2022/09/16 15:40:30;;;;;;;3.20;1.70;;;18.50;99.90;;;;;;4986084;28;20447;-72
2022/09/16 15:43:12;;;;;;;6.43;2.00;;;18.30;99.90;;;;;;4985404;28;20455;-72
2022/09/16 15:45:40;;;;;;;3.63;1.80;;;18.20;99.90;;;;;;4985222;28;20440;-74
2022/09/16 15:48:15;;;;;;;3.27;1.60;;;18.00;99.90;;;;;;4986137;28;20806;-73
2022/09/16 15:50:46;;;;;;;3.42;1.90;;;18.00;99.90;;;;;;4984762;28;20464;-73
2022/09/16 15:53:18;;;;;;;3.30;1.50;;;18.40;99.90;;;;;;4985635;28;20211;-76
2022/09/16 15:55:54;;;;;;;3.03;1.50;;;18.60;99.90;;;;;;4989450;28;20970;-80
2022/09/16 15:58:25;;;;;;;2.00;1.57;;;18.80;99.90;;;;;;4991444;28;20477;-77
2022/09/16 16:01:02;;;;;;;2.37;1.40;;;18.90;99.90;;;;;;4990975;28;20479;-78
2022/09/16 16:03:32;;;;;;;7.47;1.73;;;19.00;99.90;;;;;;4995621;28;20463;-77
2022/09/16 16:05:59;;;;;;;3.67;1.60;;;19.00;99.90;;;;;;5000303;28;20448;-77
2022/09/16 16:08:45;;;;;;;5.50;1.50;;;19.20;99.90;;;;;;4989808;28;20461;-78
2022/09/16 16:11:14;;;;;;;4.40;1.37;;;19.20;99.90;;;;;;4988549;28;20495;-78
2022/09/16 16:13:41;;;;;;;4.50;1.60;;;19.10;99.90;;;;;;4988678;28;20452;-78
2022/09/16 16:16:08;;;;;;;3.67;1.50;;;19.10;99.90;;;;;;4985976;28;21478;-77
2022/09/16 16:18:36;;;;;;;5.07;1.60;;;19.00;99.90;;;;;;4987211;28;21291;-77
2022/09/16 16:21:07;;;;;;;6.33;1.67;;;18.90;99.90;;;;;;4986566;28;20471;-77
2022/09/16 16:23:35;;;;;;;2.70;1.53;;;18.80;99.90;;;;;;4984128;28;20444;-76
2022/09/16 16:26:05;;;;;;;4.37;1.50;;;18.80;99.90;;;;;;4979422;28;20510;-77
2022/09/16 16:28:32;;;;;;;2.13;1.40;;;18.80;99.90;;;;;;4984642;28;20467;-77
2022/09/16 16:31:14;;;;;;;2.37;1.87;;;18.80;99.90;;;;;;4984685;28;20491;-77
2022/09/16 16:33:46;;;;;;;5.50;1.70;;;18.80;99.90;;;;;;4985682;28;21193;-77
2022/09/16 16:36:14;;;;;;;3.60;1.60;;;18.80;99.90;;;;;;4985432;28;20474;-76
2022/09/16 16:38:41;;;;;;;4.30;1.40;;;18.70;99.90;;;;;;4985816;28;20873;-77
2022/09/16 16:41:10;;;;;;;2.67;1.50;;;18.50;99.90;;;;;;4977677;28;20527;-77
2022/09/16 16:43:37;;;;;;;3.07;1.73;;;18.30;99.90;;;;;;4968961;28;20977;-77
2022/09/16 16:46:04;;;;;;;1.43;1.33;;;18.20;99.90;;;;;;4966266;28;20604;-81
2022/09/16 16:48:31;;;;;;;6.43;1.20;;;18.00;99.90;;;;;;4970086;28;21174;-77
2022/09/16 16:50:59;;;;;;;4.23;1.43;;;17.80;99.90;;;;;;4970839;28;20496;-79
2022/09/16 16:53:27;;;;;;;7.37;1.50;;;17.50;99.90;;;;;;4970771;28;20467;-79
2022/09/16 16:55:54;;;;;;;2.70;1.20;;;17.30;99.90;;;;;;4969711;28;20479;-80
2022/09/16 16:58:22;;;;;;;3.03;1.70;;;17.10;99.90;;;;;;4971401;28;20472;-79
2022/09/16 17:00:49;;;;;;;4.07;1.53;;;17.00;99.90;;;;;;4967863;28;20489;-78
2022/09/16 17:03:16;;;;;;;4.70;1.43;;;17.00;99.90;;;;;;4986471;28;20459;-76
2022/09/16 17:05:43;;;;;;;7.47;1.40;;;16.90;99.90;;;;;;4985065;28;20572;-76